sensor_id;sensor_type;location;lat;lon;timestamp;pressure;altitude;pressure_sealevel;temperature;humidity
19576;BME280;41589;51.196;7.074;2022-10-19T00:02:53;100172.31;;;13.12;69.42
19576;BME280;41589;51.196;7.074;2022-10-19T00:07:53;100180.09;;;13.08;69.21
19576;BME280;41589;51.196;7.074;2022-10-19T00:12:54;100179.16;;;13.11;69.24
19576;BME280;41589;51.196;7.074;2022-10-19T00:17:55;100164.25;;;13.10;69.52
19576;BME280;41589;51.196;7.074;2022-10-19T00:22:55;100173.66;;;13.07;69.45
19576;BME280;41589;51.196;7.074;2022-10-19T00:27:56;100165.28;;;13.16;69.79
19576;BME280;41589;51.196;7.074;2022-10-19T00:32:56;100166.66;;;13.12;69.14
19576;BME280;41589;51.196;7.074;2022-10-19T00:37:57;100164.53;;;12.90;69.71
19576;BME280;41589;51.196;7.074;2022-10-19T00:42:57;100168.25;;;12.87;69.47
19576;BME280;41589;51.196;7.074;2022-10-19T00:47:57;100166.78;;;12.83;69.68
19576;BME280;41589;51.196;7.074;2022-10-19T00:52:58;100162.50;;;12.78;70.12
19576;BME280;41589;51.196;7.074;2022-10-19T00:57:59;100155.50;;;12.83;70.23
19576;BME280;41589;51.196;7.074;2022-10-19T01:03:01;100160.22;;;12.86;70.20
19576;BME280;41589;51.196;7.074;2022-10-19T01:08:02;100153.91;;;12.82;70.06
19576;BME280;41589;51.196;7.074;2022-10-19T01:34:43;100149.84;;;12.70;70.87
19576;BME280;41589;51.196;7.074;2022-10-19T01:39:57;100155.94;;;12.68;71.18
19576;BME280;41589;51.196;7.074;2022-10-19T01:45:16;100156.41;;;12.67;71.35
19576;BME280;41589;51.196;7.074;2022-10-19T01:50:32;100144.75;;;12.65;71.32
19576;BME280;41589;51.196;7.074;2022-10-19T01:55:39;100135.25;;;12.59;71.06
19576;BME280;41589;51.196;7.074;2022-10-19T02:00:42;100130.75;;;12.61;71.17
19576;BME280;41589;51.196;7.074;2022-10-19T02:05:45;100122.38;;;12.58;71.34
19576;BME280;41589;51.196;7.074;2022-10-19T02:10:48;100124.09;;;12.55;71.27
19576;BME280;41589;51.196;7.074;2022-10-19T02:15:51;100114.50;;;12.53;71.69
19576;BME280;41589;51.196;7.074;2022-10-19T02:20:54;100116.88;;;12.54;71.48
19576;BME280;41589;51.196;7.074;2022-10-19T02:25:54;100101.63;;;12.52;71.18
19576;BME280;41589;51.196;7.074;2022-10-19T02:30:58;100105.56;;;12.41;71.35
19576;BME280;41589;51.196;7.074;2022-10-19T02:35:59;100103.72;;;12.35;71.55
19576;BME280;41589;51.196;7.074;2022-10-19T02:41:07;100091.97;;;12.36;71.79
19576;BME280;41589;51.196;7.074;2022-10-19T02:46:15;100090.00;;;12.50;71.77
19576;BME280;41589;51.196;7.074;2022-10-19T02:51:29;100085.13;;;12.50;71.57
19576;BME280;41589;51.196;7.074;2022-10-19T02:56:30;100075.50;;;12.48;71.18
19576;BME280;41589;51.196;7.074;2022-10-19T03:01:30;100070.09;;;12.40;71.09
19576;BME280;41589;51.196;7.074;2022-10-19T03:06:31;100075.50;;;12.35;71.11
19576;BME280;41589;51.196;7.074;2022-10-19T03:11:31;100083.63;;;12.33;71.43
19576;BME280;41589;51.196;7.074;2022-10-19T03:16:32;100082.16;;;12.41;71.64
19576;BME280;41589;51.196;7.074;2022-10-19T03:21:33;100080.72;;;12.49;71.56
19576;BME280;41589;51.196;7.074;2022-10-19T03:26:33;100077.91;;;12.49;71.17
19576;BME280;41589;51.196;7.074;2022-10-19T03:31:34;100078.25;;;12.51;70.80
19576;BME280;41589;51.196;7.074;2022-10-19T03:36:37;100075.72;;;12.40;70.81
19576;BME280;41589;51.196;7.074;2022-10-19T03:41:38;100075.03;;;12.36;70.95
19576;BME280;41589;51.196;7.074;2022-10-19T03:46:39;100075.63;;;12.31;71.09
19576;BME280;41589;51.196;7.074;2022-10-19T03:51:39;100089.94;;;12.37;71.14
19576;BME280;41589;51.196;7.074;2022-10-19T03:56:40;100093.69;;;12.34;70.88
19576;BME280;41589;51.196;7.074;2022-10-19T04:01:44;100100.34;;;12.27;70.70
19576;BME280;41589;51.196;7.074;2022-10-19T04:06:48;100092.31;;;12.13;70.72
19576;BME280;41589;51.196;7.074;2022-10-19T04:11:49;100108.34;;;12.03;70.94
19576;BME280;41589;51.196;7.074;2022-10-19T04:16:49;100102.47;;;11.98;71.33
19576;BME280;41589;51.196;7.074;2022-10-19T04:21:50;100097.63;;;11.98;71.31
19576;BME280;41589;51.196;7.074;2022-10-19T04:26:52;100098.72;;;11.88;71.53
19576;BME280;41589;51.196;7.074;2022-10-19T04:31:53;100091.72;;;11.80;71.28
19576;BME280;41589;51.196;7.074;2022-10-19T04:36:53;100086.50;;;11.66;70.76
19576;BME280;41589;51.196;7.074;2022-10-19T04:41:54;100090.28;;;11.46;71.22
19576;BME280;41589;51.196;7.074;2022-10-19T04:46:54;100090.47;;;11.39;71.96
19576;BME280;41589;51.196;7.074;2022-10-19T04:51:54;100079.97;;;11.40;72.24
19576;BME280;41589;51.196;7.074;2022-10-19T04:56:55;100079.75;;;11.34;72.53
19576;BME280;41589;51.196;7.074;2022-10-19T05:01:55;100081.84;;;11.30;73.43
19576;BME280;41589;51.196;7.074;2022-10-19T05:06:56;100079.38;;;11.32;73.43
19576;BME280;41589;51.196;7.074;2022-10-19T05:11:56;100066.78;;;11.37;73.65
19576;BME280;41589;51.196;7.074;2022-10-19T05:16:57;100073.66;;;11.36;73.65
19576;BME280;41589;51.196;7.074;2022-10-19T05:21:57;100067.31;;;11.32;73.49
19576;BME280;41589;51.196;7.074;2022-10-19T05:26:57;100059.06;;;11.24;73.86
19576;BME280;41589;51.196;7.074;2022-10-19T05:31:58;100058.09;;;11.15;74.39
19576;BME280;41589;51.196;7.074;2022-10-19T05:36:58;100071.03;;;11.12;74.96
19576;BME280;41589;51.196;7.074;2022-10-19T05:41:59;100055.34;;;11.11;75.48
19576;BME280;41589;51.196;7.074;2022-10-19T05:46:59;100059.75;;;11.12;74.61
19576;BME280;41589;51.196;7.074;2022-10-19T05:52:00;100054.84;;;11.16;74.63
19576;BME280;41589;51.196;7.074;2022-10-19T05:57:00;100046.81;;;11.15;74.33
19576;BME280;41589;51.196;7.074;2022-10-19T06:02:01;100060.31;;;11.07;74.35
19576;BME280;41589;51.196;7.074;2022-10-19T06:07:02;100053.19;;;11.03;74.26
19576;BME280;41589;51.196;7.074;2022-10-19T06:12:03;100060.66;;;11.09;73.89
19576;BME280;41589;51.196;7.074;2022-10-19T06:17:03;100063.91;;;11.08;73.81
19576;BME280;41589;51.196;7.074;2022-10-19T06:22:05;100058.72;;;11.06;74.11
19576;BME280;41589;51.196;7.074;2022-10-19T06:27:06;100054.34;;;11.05;73.55
19576;BME280;41589;51.196;7.074;2022-10-19T06:32:06;100055.47;;;11.08;73.57
19576;BME280;41589;51.196;7.074;2022-10-19T06:37:06;100052.09;;;11.13;73.37
19576;BME280;41589;51.196;7.074;2022-10-19T06:42:07;100045.78;;;11.09;73.27
19576;BME280;41589;51.196;7.074;2022-10-19T06:47:08;100057.03;;;11.09;73.34
19576;BME280;41589;51.196;7.074;2022-10-19T06:52:09;100061.19;;;11.20;73.29
19576;BME280;41589;51.196;7.074;2022-10-19T06:57:09;100072.59;;;11.29;73.20
19576;BME280;41589;51.196;7.074;2022-10-19T07:02:11;100064.50;;;11.32;72.91
19576;BME280;41589;51.196;7.074;2022-10-19T07:07:11;100053.03;;;11.39;72.39
19576;BME280;41589;51.196;7.074;2022-10-19T07:12:11;100061.44;;;11.55;71.95
19576;BME280;41589;51.196;7.074;2022-10-19T07:17:12;100056.22;;;11.53;71.77
19576;BME280;41589;51.196;7.074;2022-10-19T07:22:13;100052.28;;;11.64;71.21
19576;BME280;41589;51.196;7.074;2022-10-19T07:27:13;100066.97;;;11.71;71.07
19576;BME280;41589;51.196;7.074;2022-10-19T07:32:14;100070.13;;;11.73;70.83
19576;BME280;41589;51.196;7.074;2022-10-19T07:37:14;100069.94;;;11.93;70.42
19576;BME280;41589;51.196;7.074;2022-10-19T07:42:15;100074.47;;;12.03;70.35
19576;BME280;41589;51.196;7.074;2022-10-19T07:47:15;100079.78;;;12.27;69.85
19576;BME280;41589;51.196;7.074;2022-10-19T07:52:15;100075.88;;;12.50;69.61
19576;BME280;41589;51.196;7.074;2022-10-19T07:57:16;100078.56;;;12.40;68.35
19576;BME280;41589;51.196;7.074;2022-10-19T08:02:17;100082.97;;;12.54;68.42
19576;BME280;41589;51.196;7.074;2022-10-19T08:07:19;100082.41;;;12.72;67.75
19576;BME280;41589;51.196;7.074;2022-10-19T08:12:19;100080.97;;;12.89;67.65
19576;BME280;41589;51.196;7.074;2022-10-19T08:17:20;100079.41;;;13.01;66.28
19576;BME280;41589;51.196;7.074;2022-10-19T08:22:20;100071.66;;;13.14;66.39
19576;BME280;41589;51.196;7.074;2022-10-19T08:27:21;100067.25;;;13.13;65.65
19576;BME280;41589;51.196;7.074;2022-10-19T08:32:21;100064.22;;;13.51;66.21
19576;BME280;41589;51.196;7.074;2022-10-19T08:37:21;100062.41;;;13.79;64.57
19576;BME280;41589;51.196;7.074;2022-10-19T08:42:28;100050.88;;;13.96;63.10
19576;BME280;41589;51.196;7.074;2022-10-19T09:04:41;100030.88;;;14.80;61.97
19576;BME280;41589;51.196;7.074;2022-10-19T09:09:49;100031.69;;;14.80;60.08
19576;BME280;41589;51.196;7.074;2022-10-19T09:15:00;100023.94;;;14.71;60.25
19576;BME280;41589;51.196;7.074;2022-10-19T09:20:20;100024.88;;;14.68;59.28
19576;BME280;41589;51.196;7.074;2022-10-19T09:25:22;100017.06;;;15.00;59.45
19576;BME280;41589;51.196;7.074;2022-10-19T09:30:24;100003.81;;;15.24;58.67
19576;BME280;41589;51.196;7.074;2022-10-19T09:35:32;99990.56;;;15.30;58.10
19576;BME280;41589;51.196;7.074;2022-10-19T09:40:36;99996.84;;;15.44;57.91
19576;BME280;41589;51.196;7.074;2022-10-19T09:46:03;100001.25;;;15.54;57.22
19576;BME280;41589;51.196;7.074;2022-10-19T09:51:13;99991.25;;;15.68;57.33
19576;BME280;41589;51.196;7.074;2022-10-19T09:56:25;99999.78;;;15.68;56.50
19576;BME280;41589;51.196;7.074;2022-10-19T10:01:33;99997.41;;;15.84;55.82
19576;BME280;41589;51.196;7.074;2022-10-19T10:06:35;99987.59;;;15.95;56.69
19576;BME280;41589;51.196;7.074;2022-10-19T10:11:38;99994.91;;;15.77;54.70
19576;BME280;41589;51.196;7.074;2022-10-19T10:16:40;99976.75;;;16.17;56.32
19576;BME280;41589;51.196;7.074;2022-10-19T10:26:48;99972.72;;;16.66;54.34
19576;BME280;41589;51.196;7.074;2022-10-19T10:31:52;99988.66;;;16.87;54.57
19576;BME280;41589;51.196;7.074;2022-10-19T10:36:54;99987.69;;;17.05;53.44
19576;BME280;41589;51.196;7.074;2022-10-19T10:42:00;99982.34;;;16.83;51.73
19576;BME280;41589;51.196;7.074;2022-10-19T10:47:12;99973.19;;;17.03;53.28
19576;BME280;41589;51.196;7.074;2022-10-19T10:52:22;99973.81;;;17.37;53.49
19576;BME280;41589;51.196;7.074;2022-10-19T10:57:39;99958.56;;;17.64;52.04
19576;BME280;41589;51.196;7.074;2022-10-19T11:02:54;99959.59;;;17.51;49.84
19576;BME280;41589;51.196;7.074;2022-10-19T11:08:02;99957.72;;;17.48;50.45
19576;BME280;41589;51.196;7.074;2022-10-19T11:13:24;99944.09;;;17.82;51.01
19576;BME280;41589;51.196;7.074;2022-10-19T11:18:42;99945.47;;;18.22;50.73
19576;BME280;41589;51.196;7.074;2022-10-19T11:23:58;99934.44;;;18.29;48.99
19576;BME280;41589;51.196;7.074;2022-10-19T12:00:09;99876.66;;;19.16;46.13
19576;BME280;41589;51.196;7.074;2022-10-19T12:10:39;99852.13;;;18.78;44.60
19576;BME280;41589;51.196;7.074;2022-10-19T12:15:44;99852.47;;;19.11;43.50
19576;BME280;41589;51.196;7.074;2022-10-19T12:20:49;99847.72;;;19.02;42.10
19576;BME280;41589;51.196;7.074;2022-10-19T12:25:53;99841.78;;;19.06;39.85
19576;BME280;41589;51.196;7.074;2022-10-19T12:31:01;99835.84;;;19.10;40.22
19576;BME280;41589;51.196;7.074;2022-10-19T12:36:21;99832.72;;;19.33;40.48
19576;BME280;41589;51.196;7.074;2022-10-19T12:41:52;99821.81;;;19.06;38.79
19576;BME280;41589;51.196;7.074;2022-10-19T12:47:23;99808.50;;;18.97;39.42
19576;BME280;41589;51.196;7.074;2022-10-19T12:58:03;99783.78;;;18.63;39.77
19576;BME280;41589;51.196;7.074;2022-10-19T13:03:21;99779.19;;;18.65;39.51
19576;BME280;41589;51.196;7.074;2022-10-19T13:08:29;99767.94;;;18.56;39.78
19576;BME280;41589;51.196;7.074;2022-10-19T13:14:06;99766.13;;;18.59;39.58
19576;BME280;41589;51.196;7.074;2022-10-19T13:19:27;99757.31;;;18.57;39.96
19576;BME280;41589;51.196;7.074;2022-10-19T13:24:33;99753.75;;;18.41;39.67
19576;BME280;41589;51.196;7.074;2022-10-19T13:34:38;99740.91;;;18.26;39.44
19576;BME280;41589;51.196;7.074;2022-10-19T13:39:58;99742.47;;;18.27;40.11
19576;BME280;41589;51.196;7.074;2022-10-19T13:45:24;99736.53;;;18.30;40.92
19576;BME280;41589;51.196;7.074;2022-10-19T13:51:32;99728.06;;;18.36;40.86
19576;BME280;41589;51.196;7.074;2022-10-19T14:19:20;99725.50;;;18.17;43.39
19576;BME280;41589;51.196;7.074;2022-10-19T14:24:32;99722.81;;;18.08;43.82
19576;BME280;41589;51.196;7.074;2022-10-19T14:29:42;99723.31;;;18.07;43.94
19576;BME280;41589;51.196;7.074;2022-10-19T14:34:46;99719.69;;;18.06;44.28
19576;BME280;41589;51.196;7.074;2022-10-19T14:45:21;99693.16;;;17.95;45.14
19576;BME280;41589;51.196;7.074;2022-10-19T14:55:42;99680.13;;;17.88;45.82
19576;BME280;41589;51.196;7.074;2022-10-19T15:00:45;99678.41;;;17.96;45.75
19576;BME280;41589;51.196;7.074;2022-10-19T15:05:50;99664.72;;;18.00;46.12
19576;BME280;41589;51.196;7.074;2022-10-19T15:10:53;99659.03;;;18.00;46.19
19576;BME280;41589;51.196;7.074;2022-10-19T15:15:54;99663.13;;;18.19;46.17
19576;BME280;41589;51.196;7.074;2022-10-19T15:21:12;99652.91;;;18.07;46.44
19576;BME280;41589;51.196;7.074;2022-10-19T15:26:20;99653.75;;;18.13;46.18
19576;BME280;41589;51.196;7.074;2022-10-19T15:31:26;99648.31;;;18.15;46.46
19576;BME280;41589;51.196;7.074;2022-10-19T15:36:29;99641.06;;;18.14;46.33
19576;BME280;41589;51.196;7.074;2022-10-19T15:41:34;99632.94;;;18.07;46.47
19576;BME280;41589;51.196;7.074;2022-10-19T15:47:19;99623.34;;;18.05;47.18
19576;BME280;41589;51.196;7.074;2022-10-19T15:51:59;99629.50;;;17.98;47.32
19576;BME280;41589;51.196;7.074;2022-10-19T15:57:00;99627.31;;;17.87;47.62
19576;BME280;41589;51.196;7.074;2022-10-19T16:02:00;99615.88;;;17.81;47.92
19576;BME280;41589;51.196;7.074;2022-10-19T16:07:01;99605.56;;;17.64;48.00
19576;BME280;41589;51.196;7.074;2022-10-19T16:12:01;99598.59;;;17.44;48.30
19576;BME280;41589;51.196;7.074;2022-10-19T16:17:02;99596.38;;;17.33;48.51
19576;BME280;41589;51.196;7.074;2022-10-19T16:22:03;99610.38;;;17.17;48.64
19576;BME280;41589;51.196;7.074;2022-10-19T16:27:04;99605.81;;;17.04;48.67
19576;BME280;41589;51.196;7.074;2022-10-19T16:32:05;99590.44;;;16.96;49.13
19576;BME280;41589;51.196;7.074;2022-10-19T16:37:05;99583.75;;;16.79;49.29
19576;BME280;41589;51.196;7.074;2022-10-19T16:42:06;99580.56;;;16.57;49.96
19576;BME280;41589;51.196;7.074;2022-10-19T16:47:06;99580.25;;;16.55;50.10
19576;BME280;41589;51.196;7.074;2022-10-19T16:52:07;99567.16;;;16.42;50.60
19576;BME280;41589;51.196;7.074;2022-10-19T16:57:10;99572.66;;;16.31;50.38
19576;BME280;41589;51.196;7.074;2022-10-19T17:02:10;99580.22;;;16.20;50.84
19576;BME280;41589;51.196;7.074;2022-10-19T17:07:11;99575.53;;;16.16;50.76
19576;BME280;41589;51.196;7.074;2022-10-19T17:12:12;99578.97;;;16.06;51.15
19576;BME280;41589;51.196;7.074;2022-10-19T17:17:13;99580.91;;;16.00;51.54
19576;BME280;41589;51.196;7.074;2022-10-19T17:22:13;99570.91;;;15.89;51.91
19576;BME280;41589;51.196;7.074;2022-10-19T17:27:14;99575.13;;;15.79;52.26
19576;BME280;41589;51.196;7.074;2022-10-19T17:32:15;99564.72;;;15.62;52.35
19576;BME280;41589;51.196;7.074;2022-10-19T17:37:15;99569.28;;;15.44;52.85
19576;BME280;41589;51.196;7.074;2022-10-19T17:42:15;99563.66;;;15.35;52.98
19576;BME280;41589;51.196;7.074;2022-10-19T17:47:16;99562.75;;;15.29;52.90
19576;BME280;41589;51.196;7.074;2022-10-19T17:52:16;99567.25;;;15.21;53.16
19576;BME280;41589;51.196;7.074;2022-10-19T17:57:17;99558.63;;;15.15;53.37
19576;BME280;41589;51.196;7.074;2022-10-19T18:02:17;99548.75;;;15.11;53.44
19576;BME280;41589;51.196;7.074;2022-10-19T18:07:17;99540.81;;;15.00;53.58
19576;BME280;41589;51.196;7.074;2022-10-19T18:12:21;99546.22;;;14.89;54.36
19576;BME280;41589;51.196;7.074;2022-10-19T18:17:21;99535.44;;;14.78;53.89
19576;BME280;41589;51.196;7.074;2022-10-19T18:22:21;99539.88;;;14.70;54.44
19576;BME280;41589;51.196;7.074;2022-10-19T18:27:22;99552.63;;;14.65;54.48
19576;BME280;41589;51.196;7.074;2022-10-19T18:32:22;99551.88;;;14.56;54.81
19576;BME280;41589;51.196;7.074;2022-10-19T18:37:23;99548.44;;;14.52;54.93
19576;BME280;41589;51.196;7.074;2022-10-19T18:42:23;99530.53;;;14.45;55.07
19576;BME280;41589;51.196;7.074;2022-10-19T18:47:23;99529.63;;;14.39;55.21
19576;BME280;41589;51.196;7.074;2022-10-19T18:52:24;99524.31;;;14.32;55.49
19576;BME280;41589;51.196;7.074;2022-10-19T18:57:24;99521.81;;;14.25;55.71
19576;BME280;41589;51.196;7.074;2022-10-19T19:02:25;99514.59;;;14.24;56.10
19576;BME280;41589;51.196;7.074;2022-10-19T19:07:25;99518.28;;;14.15;56.29
19576;BME280;41589;51.196;7.074;2022-10-19T19:12:25;99503.78;;;14.13;56.54
19576;BME280;41589;51.196;7.074;2022-10-19T19:17:26;99494.88;;;14.06;56.83
19576;BME280;41589;51.196;7.074;2022-10-19T19:22:26;99489.84;;;14.01;57.37
19576;BME280;41589;51.196;7.074;2022-10-19T19:27:27;99473.19;;;13.94;57.46
19576;BME280;41589;51.196;7.074;2022-10-19T19:32:27;99478.56;;;13.92;57.80
19576;BME280;41589;51.196;7.074;2022-10-19T19:37:27;99462.06;;;13.90;57.96
19576;BME280;41589;51.196;7.074;2022-10-19T19:42:29;99470.94;;;13.74;58.51
19576;BME280;41589;51.196;7.074;2022-10-19T19:47:29;99454.56;;;13.78;58.77
19576;BME280;41589;51.196;7.074;2022-10-19T19:52:29;99453.97;;;13.74;58.92
19576;BME280;41589;51.196;7.074;2022-10-19T19:57:30;99458.22;;;13.69;59.14
19576;BME280;41589;51.196;7.074;2022-10-19T20:02:30;99468.13;;;13.65;59.13
19576;BME280;41589;51.196;7.074;2022-10-19T20:07:36;99455.56;;;13.66;59.44
19576;BME280;41589;51.196;7.074;2022-10-19T20:12:37;99444.41;;;13.62;59.82
19576;BME280;41589;51.196;7.074;2022-10-19T20:17:38;99441.72;;;13.58;59.85
19576;BME280;41589;51.196;7.074;2022-10-19T20:22:38;99451.94;;;13.56;60.06
19576;BME280;41589;51.196;7.074;2022-10-19T20:27:39;99437.66;;;13.50;60.32
19576;BME280;41589;51.196;7.074;2022-10-19T20:32:39;99439.88;;;13.46;60.55
19576;BME280;41589;51.196;7.074;2022-10-19T20:37:40;99426.22;;;13.45;60.82
19576;BME280;41589;51.196;7.074;2022-10-19T20:42:40;99431.72;;;13.39;61.00
19576;BME280;41589;51.196;7.074;2022-10-19T20:47:43;99423.22;;;13.39;61.14
19576;BME280;41589;51.196;7.074;2022-10-19T20:52:43;99407.22;;;13.36;61.37
19576;BME280;41589;51.196;7.074;2022-10-19T20:57:43;99400.59;;;13.39;61.42
19576;BME280;41589;51.196;7.074;2022-10-19T21:02:44;99392.78;;;13.34;61.57
19576;BME280;41589;51.196;7.074;2022-10-19T21:07:45;99386.06;;;13.22;61.94
19576;BME280;41589;51.196;7.074;2022-10-19T21:12:45;99382.41;;;13.31;61.94
19576;BME280;41589;51.196;7.074;2022-10-19T21:17:46;99373.13;;;13.30;61.96
19576;BME280;41589;51.196;7.074;2022-10-19T21:22:47;99369.03;;;13.31;61.73
19576;BME280;41589;51.196;7.074;2022-10-19T21:27:50;99367.19;;;13.28;62.14
19576;BME280;41589;51.196;7.074;2022-10-19T21:32:51;99365.13;;;13.29;62.33
19576;BME280;41589;51.196;7.074;2022-10-19T21:37:51;99363.38;;;13.41;62.19
19576;BME280;41589;51.196;7.074;2022-10-19T21:42:51;99368.53;;;13.42;62.51
19576;BME280;41589;51.196;7.074;2022-10-19T21:47:52;99374.19;;;13.42;62.49
19576;BME280;41589;51.196;7.074;2022-10-19T21:52:52;99361.94;;;13.45;62.99
19576;BME280;41589;51.196;7.074;2022-10-19T21:57:53;99359.88;;;13.55;62.98
19576;BME280;41589;51.196;7.074;2022-10-19T22:02:54;99363.47;;;13.55;63.32
19576;BME280;41589;51.196;7.074;2022-10-19T22:07:54;99347.44;;;13.52;63.25
19576;BME280;41589;51.196;7.074;2022-10-19T22:12:55;99348.88;;;13.57;63.54
19576;BME280;41589;51.196;7.074;2022-10-19T22:17:56;99342.59;;;13.53;63.70
19576;BME280;41589;51.196;7.074;2022-10-19T22:22:56;99336.31;;;13.49;64.06
19576;BME280;41589;51.196;7.074;2022-10-19T22:27:57;99332.53;;;13.52;64.07
19576;BME280;41589;51.196;7.074;2022-10-19T22:32:57;99320.44;;;13.51;64.00
19576;BME280;41589;51.196;7.074;2022-10-19T22:37:58;99322.84;;;13.44;64.32
19576;BME280;41589;51.196;7.074;2022-10-19T22:42:59;99312.63;;;13.46;64.50
19576;BME280;41589;51.196;7.074;2022-10-19T22:47:59;99311.34;;;13.47;64.73
19576;BME280;41589;51.196;7.074;2022-10-19T22:53:00;99301.00;;;13.44;64.63
19576;BME280;41589;51.196;7.074;2022-10-19T22:58:00;99292.19;;;13.42;64.99
19576;BME280;41589;51.196;7.074;2022-10-19T23:03:01;99281.09;;;13.29;65.57
19576;BME280;41589;51.196;7.074;2022-10-19T23:08:01;99265.84;;;13.36;65.68
19576;BME280;41589;51.196;7.074;2022-10-19T23:13:02;99262.06;;;13.39;65.53
19576;BME280;41589;51.196;7.074;2022-10-19T23:18:02;99264.88;;;13.39;65.70
19576;BME280;41589;51.196;7.074;2022-10-19T23:28:04;99236.75;;;13.45;65.63
19576;BME280;41589;51.196;7.074;2022-10-19T23:33:05;99221.88;;;13.35;65.83
19576;BME280;41589;51.196;7.074;2022-10-19T23:38:05;99211.47;;;13.41;66.19
19576;BME280;41589;51.196;7.074;2022-10-19T23:43:06;99210.78;;;13.55;65.81
19576;BME280;41589;51.196;7.074;2022-10-19T23:48:06;99205.28;;;13.52;65.66
19576;BME280;41589;51.196;7.074;2022-10-19T23:53:07;99199.81;;;13.48;65.84
19576;BME280;41589;51.196;7.074;2022-10-19T23:58:07;99196.19;;;13.48;66.14
